createdAt,value
2019-03-29T00:01:40.936Z,99.90
2019-03-29T00:04:09.342Z,99.90
2019-03-29T00:06:37.778Z,99.90
2019-03-29T00:09:07.531Z,99.90
2019-03-29T00:11:36.201Z,99.90
2019-03-29T00:14:04.744Z,99.90
2019-03-29T00:16:33.149Z,99.90
2019-03-29T00:19:02.054Z,99.90
2019-03-29T00:21:30.686Z,99.90
2019-03-29T00:24:06.778Z,99.90
2019-03-29T00:26:29.245Z,99.90
2019-03-29T00:28:57.647Z,99.90
2019-03-29T00:31:26.054Z,99.90
2019-03-29T00:33:54.448Z,99.90
2019-03-29T00:36:22.862Z,99.90
2019-03-29T00:38:51.265Z,99.90
2019-03-29T00:41:19.672Z,99.90
2019-03-29T00:43:48.093Z,99.90
2019-03-29T00:46:16.491Z,99.90
2019-03-29T00:48:44.891Z,99.90
2019-03-29T00:51:13.306Z,99.90
2019-03-29T00:53:41.706Z,99.90
2019-03-29T00:56:10.115Z,99.90
2019-03-29T00:58:38.697Z,99.90
2019-03-29T01:01:07.086Z,99.90
2019-03-29T01:03:35.486Z,99.90
2019-03-29T01:06:05.630Z,99.90
2019-03-29T01:08:34.031Z,99.90
2019-03-29T01:11:02.543Z,99.90
2019-03-29T01:13:30.927Z,99.90
2019-03-29T01:15:59.330Z,99.90
2019-03-29T01:18:27.969Z,99.90
2019-03-29T01:20:56.390Z,99.90
2019-03-29T01:23:24.790Z,99.90
2019-03-29T01:25:53.194Z,99.90
2019-03-29T01:28:21.695Z,99.90
2019-03-29T01:30:50.238Z,99.90
2019-03-29T01:33:18.717Z,99.90
2019-03-29T01:35:47.146Z,99.90
2019-03-29T01:38:21.679Z,99.90
2019-03-29T01:40:45.674Z,99.90
2019-03-29T01:43:14.082Z,99.90
2019-03-29T01:45:42.482Z,99.90
2019-03-29T01:48:10.887Z,99.90
2019-03-29T01:50:39.298Z,99.90
2019-03-29T01:53:07.701Z,99.90
2019-03-29T01:55:36.170Z,99.90
2019-03-29T01:58:04.815Z,99.90
2019-03-29T02:00:36.131Z,99.90
2019-03-29T02:03:04.884Z,99.90
2019-03-29T02:05:33.298Z,99.90
2019-03-29T02:08:01.705Z,99.90
2019-03-29T02:10:30.098Z,99.90
2019-03-29T02:12:59.204Z,99.90
2019-03-29T02:15:28.297Z,99.90
2019-03-29T02:17:56.702Z,99.90
2019-03-29T02:20:25.178Z,99.90
2019-03-29T02:22:53.582Z,99.90
2019-03-29T02:25:21.983Z,99.90
2019-03-29T02:27:50.382Z,99.90
2019-03-29T02:30:18.926Z,99.90
2019-03-29T02:32:47.326Z,99.90
2019-03-29T02:35:15.806Z,99.90
2019-03-29T02:37:44.207Z,99.90
2019-03-29T02:40:12.752Z,99.90
2019-03-29T02:42:42.780Z,99.90
2019-03-29T02:45:11.288Z,99.90
2019-03-29T02:47:39.679Z,99.90
2019-03-29T02:50:09.134Z,99.90
2019-03-29T02:52:37.706Z,99.90
2019-03-29T02:55:06.948Z,99.90
2019-03-29T02:57:35.431Z,99.90
2019-03-29T03:00:08.384Z,99.90
2019-03-29T03:02:36.856Z,99.90
2019-03-29T03:05:06.123Z,99.90
2019-03-29T03:07:34.523Z,99.90
2019-03-29T03:10:03.703Z,99.90
2019-03-29T03:12:32.115Z,99.90
2019-03-29T03:15:00.516Z,99.90
2019-03-29T03:17:29.001Z,99.90
2019-03-29T03:19:57.398Z,99.90
2019-03-29T03:22:25.803Z,99.90
2019-03-29T03:24:54.199Z,99.90
2019-03-29T03:27:22.613Z,99.90
2019-03-29T03:29:51.013Z,99.90
2019-03-29T03:32:19.491Z,99.90
2019-03-29T03:34:47.899Z,99.90
2019-03-29T03:37:16.307Z,99.90
2019-03-29T03:39:44.708Z,99.90
2019-03-29T03:42:13.193Z,99.90
2019-03-29T03:44:41.584Z,99.90
2019-03-29T03:47:09.986Z,99.90
2019-03-29T03:49:38.638Z,99.90
2019-03-29T03:52:07.046Z,99.90
2019-03-29T03:54:35.455Z,99.90
2019-03-29T03:57:05.358Z,99.90
2019-03-29T03:59:34.439Z,99.90
2019-03-29T04:02:02.848Z,99.90
2019-03-29T04:04:31.266Z,99.90
2019-03-29T04:06:59.660Z,99.90
2019-03-29T04:09:28.063Z,99.90
2019-03-29T04:11:56.586Z,99.90
2019-03-29T04:14:25.040Z,99.90
2019-03-29T04:16:53.441Z,99.90
2019-03-29T04:19:21.848Z,99.90
2019-03-29T04:21:50.246Z,99.90
2019-03-29T04:24:18.646Z,99.90
2019-03-29T04:26:47.059Z,99.90
2019-03-29T04:29:15.458Z,99.90
2019-03-29T04:31:43.862Z,99.90
2019-03-29T04:34:12.278Z,99.90
2019-03-29T04:36:40.671Z,99.90
2019-03-29T04:39:09.075Z,99.90
2019-03-29T04:41:37.507Z,99.90
2019-03-29T04:44:05.906Z,99.90
2019-03-29T04:46:34.313Z,99.90
2019-03-29T04:49:02.747Z,99.90
2019-03-29T04:51:31.146Z,99.90
2019-03-29T04:53:59.550Z,99.90
2019-03-29T04:56:27.958Z,99.90
2019-03-29T04:58:56.360Z,99.90
2019-03-29T05:01:24.762Z,99.90
2019-03-29T05:03:53.170Z,99.90
2019-03-29T05:06:21.571Z,99.90
2019-03-29T05:08:49.974Z,99.90
2019-03-29T05:11:18.382Z,99.90
2019-03-29T05:13:46.809Z,99.90
2019-03-29T05:16:15.259Z,99.90
2019-03-29T05:18:43.666Z,99.90
2019-03-29T05:21:12.069Z,99.90
2019-03-29T05:23:40.474Z,99.90
2019-03-29T05:26:08.886Z,99.90
2019-03-29T05:28:37.286Z,99.90
2019-03-29T05:31:05.690Z,99.90
2019-03-29T05:33:34.098Z,99.90
2019-03-29T05:36:02.510Z,99.90
2019-03-29T05:38:30.919Z,99.90
2019-03-29T05:40:59.322Z,99.90
2019-03-29T05:43:27.727Z,99.90
2019-03-29T05:45:56.131Z,99.90
2019-03-29T05:48:24.533Z,99.90
2019-03-29T05:50:52.966Z,99.90
2019-03-29T05:53:21.364Z,99.90
2019-03-29T05:55:49.775Z,99.90
2019-03-29T05:58:18.209Z,99.90
2019-03-29T06:00:46.626Z,99.90
2019-03-29T06:03:15.038Z,99.90
2019-03-29T06:05:43.439Z,99.90
2019-03-29T06:08:11.835Z,99.90
2019-03-29T06:10:48.779Z,99.90
2019-03-29T06:13:10.370Z,99.90
2019-03-29T06:15:38.793Z,99.90
2019-03-29T06:18:07.209Z,99.90
2019-03-29T06:20:35.611Z,99.90
2019-03-29T06:23:04.010Z,99.90
2019-03-29T06:25:32.459Z,99.90
2019-03-29T06:28:00.858Z,99.90
2019-03-29T06:30:30.002Z,99.90
2019-03-29T06:32:58.860Z,99.90
2019-03-29T06:35:30.667Z,99.90
2019-03-29T06:37:59.341Z,99.90
2019-03-29T06:40:27.819Z,99.90
2019-03-29T06:42:56.222Z,99.90
2019-03-29T06:45:24.622Z,99.90
2019-03-29T06:47:53.038Z,99.90
2019-03-29T06:50:21.434Z,99.90
2019-03-29T06:52:49.834Z,99.90
2019-03-29T06:55:18.250Z,99.90
2019-03-29T06:57:46.650Z,99.90
2019-03-29T07:00:15.213Z,99.90
2019-03-29T07:02:43.618Z,99.90
2019-03-29T07:05:12.010Z,99.90
2019-03-29T07:07:40.410Z,99.90
2019-03-29T07:10:09.162Z,99.90
2019-03-29T07:12:37.570Z,99.90
2019-03-29T07:15:07.010Z,99.90
2019-03-29T07:17:35.434Z,99.90
2019-03-29T07:20:05.868Z,99.90
2019-03-29T07:22:34.725Z,99.90
2019-03-29T07:25:04.246Z,99.90
2019-03-29T07:27:43.971Z,99.90
2019-03-29T07:30:03.156Z,99.90
2019-03-29T07:32:31.599Z,99.90
2019-03-29T07:35:00.006Z,99.90
2019-03-29T07:37:28.410Z,99.90
2019-03-29T07:39:56.826Z,99.90
2019-03-29T07:42:25.242Z,99.90
2019-03-29T07:44:53.650Z,99.90
2019-03-29T07:47:22.138Z,99.90
2019-03-29T07:49:50.548Z,99.90
2019-03-29T07:52:18.951Z,99.90
2019-03-29T07:54:47.371Z,99.90
2019-03-29T07:57:15.778Z,99.90
2019-03-29T07:59:44.262Z,99.90
2019-03-29T08:02:12.713Z,99.90
2019-03-29T08:04:41.106Z,99.90
2019-03-29T08:07:09.514Z,99.90
2019-03-29T08:09:37.938Z,99.90
2019-03-29T08:12:06.359Z,99.90
2019-03-29T08:14:34.767Z,99.90
2019-03-29T08:17:03.182Z,99.90
2019-03-29T08:19:31.616Z,99.90
2019-03-29T08:22:00.002Z,99.90
2019-03-29T08:24:28.423Z,99.90
2019-03-29T08:26:56.826Z,99.70
2019-03-29T08:29:25.230Z,99.40
2019-03-29T08:31:55.533Z,98.50
2019-03-29T08:34:23.778Z,97.50
2019-03-29T08:36:52.350Z,96.90
2019-03-29T08:39:27.820Z,94.60
2019-03-29T08:42:00.006Z,93.80
2019-03-29T08:44:21.018Z,94.20
2019-03-29T08:46:49.448Z,94.10
2019-03-29T08:49:17.840Z,93.10
2019-03-29T08:51:46.247Z,93.90
2019-03-29T08:54:14.678Z,92.80
2019-03-29T08:56:43.079Z,91.80
2019-03-29T08:59:11.475Z,93.10
2019-03-29T09:01:40.120Z,92.50
2019-03-29T09:04:08.589Z,91.00
2019-03-29T09:06:37.054Z,87.10
2019-03-29T09:09:06.902Z,85.20
2019-03-29T09:11:38.569Z,83.80
2019-03-29T09:14:05.436Z,85.00
2019-03-29T09:16:33.846Z,82.80
2019-03-29T09:19:02.254Z,85.10
2019-03-29T09:21:30.655Z,84.20
2019-03-29T09:23:59.179Z,82.40
2019-03-29T09:26:27.575Z,78.50
2019-03-29T09:28:55.987Z,77.50
2019-03-29T09:31:24.418Z,75.20
2019-03-29T09:33:52.821Z,71.90
2019-03-29T09:36:21.219Z,68.80
2019-03-29T09:38:49.949Z,75.20
2019-03-29T09:41:18.414Z,77.80
2019-03-29T09:43:47.101Z,78.20
2019-03-29T09:46:15.498Z,71.60
2019-03-29T09:48:43.888Z,68.80
2019-03-29T09:51:12.291Z,67.30
2019-03-29T09:53:41.381Z,67.00
2019-03-29T09:56:09.990Z,62.00
2019-03-29T09:58:38.398Z,60.50
2019-03-29T10:01:06.839Z,59.70
2019-03-29T10:03:35.487Z,59.00
2019-03-29T10:06:03.904Z,61.40
2019-03-29T10:08:32.320Z,49.90
2019-03-29T10:11:00.739Z,46.00
2019-03-29T10:13:29.431Z,44.00
2019-03-29T10:15:57.847Z,40.80
2019-03-29T10:18:26.242Z,41.20
2019-03-29T10:20:54.646Z,40.50
2019-03-29T10:25:51.131Z,36.30
2019-03-29T10:28:19.535Z,38.00
2019-03-29T10:30:47.978Z,40.10
2019-03-29T10:33:16.384Z,40.60
2019-03-29T10:35:51.949Z,41.10
2019-03-29T10:38:18.066Z,40.50
2019-03-29T10:40:45.050Z,43.70
2019-03-29T10:43:13.525Z,44.90
2019-03-29T10:45:41.943Z,47.70
2019-03-29T10:48:10.346Z,46.50
2019-03-29T10:50:39.017Z,46.80
2019-03-29T10:53:07.475Z,47.60
2019-03-29T10:55:35.882Z,51.20
2019-03-29T10:58:04.351Z,50.30
2019-03-29T11:00:35.270Z,51.30
2019-03-29T11:03:03.746Z,52.00
2019-03-29T11:05:32.146Z,52.20
2019-03-29T11:08:00.559Z,53.50
2019-03-29T11:10:33.816Z,55.20
2019-03-29T11:13:12.731Z,53.80
2019-03-29T11:15:32.644Z,53.00
2019-03-29T11:18:01.051Z,56.30
2019-03-29T11:20:29.529Z,56.80
2019-03-29T11:22:58.022Z,55.90
2019-03-29T11:25:26.495Z,59.40
2019-03-29T11:27:54.974Z,59.50
2019-03-29T11:30:23.395Z,59.40
2019-03-29T11:32:51.875Z,59.80
2019-03-29T11:35:20.287Z,60.20
2019-03-29T11:37:48.726Z,57.50
2019-03-29T11:40:17.319Z,58.70
2019-03-29T11:42:45.774Z,59.80
2019-03-29T11:45:14.360Z,61.00
2019-03-29T11:47:42.765Z,60.70
2019-03-29T11:50:11.506Z,58.60
2019-03-29T11:52:39.938Z,57.90
2019-03-29T11:55:08.414Z,58.30
2019-03-29T11:57:36.818Z,59.20
2019-03-29T12:00:10.399Z,61.30
2019-03-29T12:02:38.808Z,61.00
2019-03-29T12:05:07.560Z,60.60
2019-03-29T12:07:35.963Z,59.00
2019-03-29T12:10:06.110Z,58.60
2019-03-29T12:12:34.514Z,59.40
2019-03-29T12:15:03.006Z,60.70
2019-03-29T12:17:31.763Z,60.70
2019-03-29T12:20:00.332Z,61.90
2019-03-29T12:22:28.866Z,60.10
2019-03-29T12:24:57.267Z,61.70
2019-03-29T12:27:25.735Z,62.80
2019-03-29T12:29:54.164Z,65.70
2019-03-29T12:32:22.626Z,66.80
2019-03-29T12:34:51.031Z,67.40
2019-03-29T12:37:19.451Z,64.20
2019-03-29T12:39:47.854Z,66.40
2019-03-29T12:42:16.253Z,64.80
2019-03-29T12:44:44.689Z,67.60
2019-03-29T12:47:13.090Z,67.10
2019-03-29T12:49:41.494Z,66.50
2019-03-29T12:52:09.922Z,68.70
2019-03-29T12:54:38.329Z,66.90
2019-03-29T12:57:07.071Z,64.90
2019-03-29T12:59:35.721Z,65.80
2019-03-29T13:02:04.199Z,66.10
2019-03-29T13:04:32.608Z,68.90
2019-03-29T13:07:01.020Z,67.40
2019-03-29T13:09:29.751Z,66.10
2019-03-29T13:11:58.158Z,68.50
2019-03-29T13:14:26.587Z,66.00
2019-03-29T13:16:54.986Z,65.20
2019-03-29T13:19:23.397Z,64.30
2019-03-29T13:21:51.810Z,64.90
2019-03-29T13:24:20.214Z,67.40
2019-03-29T13:26:48.602Z,67.00
2019-03-29T13:29:17.043Z,68.00
2019-03-29T13:31:45.515Z,69.10
2019-03-29T13:34:13.914Z,66.50
2019-03-29T13:36:42.333Z,69.40
2019-03-29T13:39:10.882Z,70.10
2019-03-29T13:41:39.283Z,70.30
2019-03-29T13:44:07.698Z,69.50
2019-03-29T13:46:36.174Z,71.30
2019-03-29T13:49:04.646Z,69.50
2019-03-29T13:51:33.550Z,68.00
2019-03-29T13:54:02.201Z,68.70
2019-03-29T13:56:30.598Z,68.50
2019-03-29T13:58:59.030Z,68.60
2019-03-29T14:01:27.438Z,68.30
2019-03-29T14:03:55.834Z,68.80
2019-03-29T14:06:24.518Z,68.90
2019-03-29T14:08:53.218Z,68.20
2019-03-29T14:11:21.610Z,69.00
2019-03-29T14:13:50.014Z,67.80
2019-03-29T14:16:18.414Z,75.20
2019-03-29T14:18:46.814Z,71.20
2019-03-29T14:21:15.219Z,71.80
2019-03-29T14:23:43.626Z,71.00
2019-03-29T14:26:12.026Z,71.10
2019-03-29T14:28:40.444Z,70.40
2019-03-29T14:31:09.007Z,69.70
2019-03-29T14:33:37.410Z,69.10
2019-03-29T14:36:05.810Z,70.30
2019-03-29T14:38:34.221Z,69.60
2019-03-29T14:41:02.606Z,69.40
2019-03-29T14:43:31.006Z,69.20
2019-03-29T14:45:59.423Z,69.80
2019-03-29T14:48:27.824Z,70.50
2019-03-29T14:50:56.574Z,72.10
2019-03-29T14:53:24.986Z,71.20
2019-03-29T14:55:53.393Z,71.50
2019-03-29T14:58:21.797Z,71.50
2019-03-29T15:00:50.214Z,73.50
2019-03-29T15:03:18.986Z,73.10
2019-03-29T15:05:47.392Z,72.40
2019-03-29T15:08:15.795Z,72.80
2019-03-29T15:10:45.799Z,74.10
2019-03-29T15:13:14.499Z,75.50
2019-03-29T15:15:42.910Z,75.50
2019-03-29T15:18:11.322Z,75.00
2019-03-29T15:20:52.667Z,76.10
2019-03-29T15:23:09.892Z,75.40
2019-03-29T15:25:40.609Z,74.80
2019-03-29T15:28:08.466Z,75.30
2019-03-29T15:30:36.874Z,74.80
2019-03-29T15:33:05.286Z,75.10
2019-03-29T15:35:33.922Z,75.20
2019-03-29T15:38:02.354Z,75.70
2019-03-29T15:40:30.786Z,75.10
2019-03-29T15:42:59.186Z,74.80
2019-03-29T15:45:27.661Z,75.10
2019-03-29T15:47:56.075Z,74.30
2019-03-29T15:50:24.474Z,74.40
2019-03-29T15:52:52.874Z,75.00
2019-03-29T15:55:21.283Z,76.00
2019-03-29T15:57:49.710Z,76.10
2019-03-29T16:00:18.250Z,76.00
2019-03-29T16:02:46.656Z,76.10
2019-03-29T16:05:15.070Z,76.00
2019-03-29T16:07:43.462Z,76.40
2019-03-29T16:10:12.005Z,75.90
2019-03-29T16:12:40.418Z,76.20
2019-03-29T16:15:09.566Z,76.90
2019-03-29T16:17:37.967Z,77.70
2019-03-29T16:20:07.123Z,77.80
2019-03-29T16:22:35.794Z,78.30
2019-03-29T16:25:06.530Z,78.30
2019-03-29T16:27:34.962Z,79.00
2019-03-29T16:30:04.605Z,78.90
2019-03-29T16:32:33.006Z,79.70
2019-03-29T16:35:01.423Z,79.80
2019-03-29T16:37:29.822Z,80.50
2019-03-29T16:39:58.298Z,80.40
2019-03-29T16:42:26.713Z,81.40
2019-03-29T16:44:55.102Z,81.10
2019-03-29T16:47:23.506Z,80.70
2019-03-29T16:49:51.923Z,81.50
2019-03-29T16:52:20.322Z,82.00
2019-03-29T16:54:48.724Z,81.50
2019-03-29T16:57:17.380Z,81.90
2019-03-29T16:59:45.783Z,83.80
2019-03-29T17:02:14.281Z,84.20
2019-03-29T17:04:42.723Z,84.20
2019-03-29T17:07:11.366Z,84.40
2019-03-29T17:09:39.776Z,85.40
2019-03-29T17:12:08.188Z,85.20
2019-03-29T17:14:36.590Z,85.90
2019-03-29T17:17:04.994Z,86.70
2019-03-29T17:19:33.404Z,86.80
2019-03-29T17:22:01.806Z,87.00
2019-03-29T17:24:30.282Z,87.90
2019-03-29T17:26:58.686Z,88.20
2019-03-29T17:29:27.114Z,88.90
2019-03-29T17:31:57.083Z,90.00
2019-03-29T17:34:25.474Z,90.10
2019-03-29T17:36:53.965Z,90.10
2019-03-29T17:39:22.737Z,90.40
2019-03-29T17:41:51.416Z,90.50
2019-03-29T17:44:19.858Z,90.80
2019-03-29T17:46:48.294Z,90.60
2019-03-29T17:49:16.694Z,90.70
2019-03-29T17:51:45.113Z,91.20
2019-03-29T17:54:13.518Z,91.70
2019-03-29T17:56:41.925Z,92.10
2019-03-29T17:59:10.347Z,92.20
2019-03-29T18:01:39.465Z,93.10
2019-03-29T18:04:08.034Z,93.50
2019-03-29T18:06:36.446Z,94.10
2019-03-29T18:09:07.332Z,94.40
2019-03-29T18:11:36.113Z,95.00
2019-03-29T18:14:04.606Z,96.00
2019-03-29T18:16:33.100Z,97.30
2019-03-29T18:19:01.498Z,97.70
2019-03-29T18:21:30.261Z,97.90
2019-03-29T18:23:58.659Z,98.40
2019-03-29T18:26:27.147Z,99.10
2019-03-29T18:28:55.595Z,99.90
2019-03-29T18:31:24.070Z,99.90
2019-03-29T18:33:52.547Z,99.90
2019-03-29T18:36:21.102Z,99.90
2019-03-29T18:38:49.507Z,99.90
2019-03-29T18:41:18.242Z,99.90
2019-03-29T18:43:46.662Z,99.90
2019-03-29T18:46:15.082Z,99.90
2019-03-29T18:48:43.486Z,99.90
2019-03-29T18:51:11.934Z,99.90
2019-03-29T18:53:40.342Z,99.90
2019-03-29T18:56:08.760Z,99.90
2019-03-29T18:58:37.186Z,99.90
2019-03-29T19:01:05.686Z,99.90
2019-03-29T19:03:34.082Z,99.90
2019-03-29T19:06:02.882Z,99.90
2019-03-29T19:08:31.293Z,99.90
2019-03-29T19:10:59.762Z,99.90
2019-03-29T19:13:28.188Z,99.90
2019-03-29T19:15:56.597Z,99.90
2019-03-29T19:18:24.998Z,99.90
2019-03-29T19:23:16.415Z,99.90
2019-03-29T19:25:44.822Z,99.90
2019-03-29T19:28:13.326Z,99.90
2019-03-29T19:30:41.759Z,99.90
2019-03-29T19:33:10.157Z,99.90
2019-03-29T19:35:38.582Z,99.90
2019-03-29T19:38:06.990Z,99.90
2019-03-29T19:40:35.478Z,99.90
2019-03-29T19:43:03.996Z,99.90
2019-03-29T19:45:34.318Z,99.90
2019-03-29T19:48:02.535Z,99.90
2019-03-29T19:50:30.951Z,99.90
2019-03-29T19:52:59.346Z,99.90
2019-03-29T19:55:28.315Z,99.90
2019-03-29T19:57:56.962Z,99.90
2019-03-29T20:00:39.441Z,99.90
2019-03-29T20:03:09.990Z,99.90
2019-03-29T20:05:38.468Z,99.90
2019-03-29T20:08:07.049Z,99.90
2019-03-29T20:10:35.464Z,99.90
2019-03-29T20:13:04.614Z,99.90
2019-03-29T20:15:33.018Z,99.90
2019-03-29T20:18:02.114Z,99.90
2019-03-29T20:20:30.526Z,99.90
2019-03-29T20:22:59.433Z,99.90
2019-03-29T20:25:27.850Z,99.90
2019-03-29T20:27:58.331Z,99.90
2019-03-29T20:30:26.559Z,99.90
2019-03-29T20:32:55.041Z,99.90
2019-03-29T20:35:23.465Z,99.90
2019-03-29T20:37:51.866Z,99.90
2019-03-29T20:40:20.296Z,99.90
2019-03-29T20:42:48.698Z,99.90
2019-03-29T20:45:17.366Z,99.90
2019-03-29T20:47:45.855Z,99.90
2019-03-29T20:50:15.002Z,99.90
2019-03-29T20:52:43.413Z,99.90
2019-03-29T20:55:11.967Z,99.90
2019-03-29T20:57:41.436Z,99.90
2019-03-29T21:00:11.914Z,99.90
2019-03-29T21:02:40.303Z,99.90
2019-03-29T21:05:08.797Z,99.90
2019-03-29T21:07:37.206Z,99.90
2019-03-29T21:10:07.173Z,99.90
2019-03-29T21:12:35.577Z,99.90
2019-03-29T21:15:05.595Z,99.90
2019-03-29T21:17:34.290Z,99.90
2019-03-29T21:20:04.418Z,99.90
2019-03-29T21:22:32.822Z,99.90
2019-03-29T21:25:01.263Z,99.90
2019-03-29T21:27:29.700Z,99.90
2019-03-29T21:29:58.143Z,99.90
2019-03-29T21:32:27.316Z,99.90
2019-03-29T21:34:55.734Z,99.90
2019-03-29T21:37:24.150Z,99.90
2019-03-29T21:39:52.614Z,99.90
2019-03-29T21:42:21.016Z,99.90
2019-03-29T21:44:49.427Z,99.90
2019-03-29T21:47:17.838Z,99.90
2019-03-29T21:52:15.150Z,99.90
2019-03-29T21:54:43.571Z,99.90
2019-03-29T21:57:11.979Z,99.90
2019-03-29T21:59:40.387Z,99.90
2019-03-29T22:02:08.813Z,99.90
2019-03-29T22:04:37.274Z,99.90
2019-03-29T22:07:05.683Z,99.90
2019-03-29T22:09:37.239Z,99.90
2019-03-29T22:12:04.393Z,99.90
2019-03-29T22:14:32.806Z,99.90
2019-03-29T22:17:01.226Z,99.90
2019-03-29T22:19:29.658Z,99.90
2019-03-29T22:21:58.066Z,99.90
2019-03-29T22:24:26.702Z,99.90
2019-03-29T22:26:55.151Z,99.90
2019-03-29T22:29:23.561Z,99.90
2019-03-29T22:31:51.964Z,99.90
2019-03-29T22:34:20.410Z,99.90
2019-03-29T22:36:48.810Z,99.90
2019-03-29T22:39:17.223Z,99.90
2019-03-29T22:41:45.742Z,99.90
2019-03-29T22:44:14.142Z,99.90
2019-03-29T22:46:42.553Z,99.90
2019-03-29T22:49:10.970Z,99.90
2019-03-29T22:51:39.378Z,99.90
2019-03-29T22:54:08.078Z,99.90
2019-03-29T22:56:36.771Z,99.90
2019-03-29T22:59:05.172Z,99.90
2019-03-29T23:01:36.684Z,99.90
2019-03-29T23:04:05.267Z,99.90
2019-03-29T23:06:34.462Z,99.90
2019-03-29T23:09:02.884Z,99.90
2019-03-29T23:11:31.296Z,99.90
2019-03-29T23:13:59.694Z,99.90
2019-03-29T23:16:30.419Z,99.90
2019-03-29T23:19:06.392Z,99.90
2019-03-29T23:21:28.359Z,99.90
2019-03-29T23:23:56.759Z,99.90
2019-03-29T23:26:25.184Z,99.90
2019-03-29T23:28:53.571Z,99.90
2019-03-29T23:31:21.980Z,99.90
2019-03-29T23:33:50.407Z,99.90
2019-03-29T23:36:18.814Z,99.90
2019-03-29T23:38:47.211Z,99.90
2019-03-29T23:41:15.626Z,99.90
2019-03-29T23:43:44.026Z,99.90
2019-03-29T23:46:12.428Z,99.90
2019-03-29T23:48:40.839Z,99.90
2019-03-29T23:51:09.238Z,99.90
2019-03-29T23:53:39.174Z,99.90
2019-03-29T23:56:07.598Z,99.90
2019-03-29T23:58:36.000Z,99.90
